Delray Beach, Florida
Current Conditions -  °F | °C
As of 9:50 PM on Thursday 30 Oct 2014 (Local Time) from KBCT Reporting Station
Scattered Clouds Scattered Clouds  
Wind Chill: 75°   Ceiling: Unl
Heat Index: 75°   Visibility: 10mi
Dew Point: 68°   Wind: 8mph
Humidity: 78%   Direction: 110°ESE
Pressure: 29.89"   Gusts: NA
Location:  26.46°N, 80.07°W
Report Text: KBCT 310150Z 11007KT 10SM FEW060 SCT070 24/20 A2989
Loading
Personal Weather Stations






























Interactive Weather Map
Tropical Storm Tracking
New forecast layout! Learn more

10-Day Weather Forecast

Advertisements
Track Severe Weather on mobile